Hlavní strana
METAR-TAF:

METAR-TAF

Letiště :

Fort-de-France, Martinik

zeměpisná šířka: 14-36N, zeměpisná délka: 061-00W, výška: 5 m

Aktuální stav počasí

Zpráva byla vytvořena před 24 minutami, v 21:30 UTC
Východojihovýchodní vítr 12 kt
Teplota 27°C
Vlhkost vzduchu 70%
Tlak 1014 hPa
Viditelnost 10 km a více
Skoro jasno ve výšce 2500 ft
Zataženo ve výšce 11000 ft

METAR: TFFF 042130Z AUTO 11012KT 9999 FEW025 OVC110 27/21 Q1014

Čas: 17:54 (21:54 UTC)

Předpověď počasí

Zpráva byla vytvořena před 28 hodinami a 54 minutami, v 17:00 UTC
Předpověď platná od 03 v 18 UTC do 04 v 18 UTC
Východní vítr 10 kt
Viditelnost 10 km a více
Polojasno ve výšce 3000 ft
Dočasný
od 03 v 18 UTC do 03 v 22 UTC
Východojihovýchodní vítr 15 kt s nárazy do 25 kt
Pravděpodobnost 30% :
Dočasný
od 04 v 05 UTC do 04 v 18 UTC
Viditelnost: 4000 m
Oblačno až skoro zataženo ve výšce 1500 ft, Vertikální cumulus.
dešťové přeháňky

TAF: TFFF 031700Z 0318/0418 10010KT 9999 SCT030 TEMPO 0318/0322 11015G25KT PROB30 TEMPO 0405/0418 4000 SHRA BKN015TCU

Stav a předpovědi počasí z více než 4 000 letišť (zprávy METAR a TAF).

Červené a žluté tečky na mapě představují dostupné meteorologické stanice.

Když kurzor umístíte na tečku, zobrazí se název stanice.

Pak kliknutím zobrazíte stav a předpověď počasí.

Chcete-li změnit mapu, kliknutím na zelené tlačítko se znaménkem +mapu přiblížíte, kliknutím na zelené tlačítko se znaménkem – mapu oddálíte a kliknutím na zelené šipky přejdete na sousední mapy.


METAR-TAF: